Terminal Aerodrome Forecast
Issued by NWS Amarillo, TX

Home | Current Version | Previous Version | Text Only | Print | Product List | Glossary On
Versions: 1 2 3 4 5 6 7 8 9 10 11 12 13 14 15 16 17 18 19
000
FTUS44 KAMA 080500
TAFDHT
TAF
KDHT 080521Z 0806/0906 12005KT 3SM HZ FEW050 BKN150
     FM081000 15006KT 2SM BR OVC015
     FM081400 19014KT P6SM BKN040
     FM090000 18015KT P6SM VCTS BKN060CB=

USA.gov is the U.S. government's official web portal to all federal, state and local government web resources and services.